Time;durP1;ratioP1;P1;durP2;ratioP2;P2;SDS_P1;SDS_P2;PMS_P1;PMS_P2;Temp;Humidity;BMP_temperature;BMP_pressure;BME280_temperature;BME280_humidity;BME280_pressure;Samples;Min_cycle;Max_cycle;Signal;HPM_P1;HPM_P2
2023/07/04 00:02:16;;;;;;;2.83;1.08;;;23.40;48.80;;;;;;2547079;54;20983;-71
2023/07/04 00:04:42;;;;;;;2.22;0.82;;;23.30;48.90;;;;;;2308638;55;21019;-70
2023/07/04 00:07:10;;;;;;;4.85;1.00;;;23.30;49.00;;;;;;2308209;55;20944;-70
2023/07/04 00:09:36;;;;;;;2.08;0.70;;;23.20;49.70;;;;;;2284724;55;20956;-72
2023/07/04 00:12:03;;;;;;;2.45;0.82;;;23.10;50.70;;;;;;2276801;55;21019;-72
2023/07/04 00:14:29;;;;;;;2.10;0.75;;;23.10;51.70;;;;;;2546967;54;21000;-73
2023/07/04 00:16:56;;;;;;;2.40;0.90;;;23.00;52.40;;;;;;2526822;54;20974;-73
2023/07/04 00:19:29;;;;;;;3.03;0.80;;;23.00;53.10;;;;;;2515530;55;21473;-72
2023/07/04 00:21:57;;;;;;;1.08;0.50;;;22.90;53.70;;;;;;2281728;55;21004;-71
2023/07/04 00:24:23;;;;;;;1.62;0.70;;;22.80;54.20;;;;;;2515544;54;21000;-71
2023/07/04 00:26:50;;;;;;;1.87;0.82;;;22.80;54.80;;;;;;2515430;54;20984;-70
2023/07/04 00:29:17;;;;;;;2.50;1.00;;;22.80;55.30;;;;;;2281550;55;21026;-73
2023/07/04 00:31:44;;;;;;;1.85;0.70;;;22.70;55.70;;;;;;2281956;55;21099;-74
2023/07/04 00:34:12;;;;;;;1.48;0.60;;;22.70;56.10;;;;;;2514410;55;21782;-71
2023/07/04 00:36:39;;;;;;;1.62;0.68;;;22.60;56.50;;;;;;2284904;55;20982;-72
2023/07/04 00:39:07;;;;;;;2.35;1.00;;;22.60;56.90;;;;;;2547172;54;20976;-72
2023/07/04 00:41:35;;;;;;;2.53;0.90;;;22.60;57.40;;;;;;2307472;55;20948;-72
2023/07/04 00:44:19;;;;;;;2.12;0.60;;;22.50;57.60;;;;;;2281699;55;21022;-72
2023/07/04 00:47:08;;;;;;;1.92;0.70;;;22.50;57.90;;;;;;2516298;55;20954;-73
2023/07/04 00:49:43;;;;;;;2.78;0.90;;;22.50;58.20;;;;;;2496422;55;20946;-71
2023/07/04 00:52:23;;;;;;;2.47;0.70;;;22.50;58.60;;;;;;2272190;55;21745;-72
2023/07/04 00:54:57;;;;;;;1.95;0.77;;;22.50;58.90;;;;;;2268471;56;20946;-71
2023/07/04 00:57:25;;;;;;;2.00;0.70;;;22.50;59.10;;;;;;2540173;54;20987;-71
2023/07/04 00:59:57;;;;;;;1.35;0.57;;;22.40;59.20;;;;;;2547459;54;21833;-71
2023/07/04 01:02:33;;;;;;;0.82;0.43;;;22.40;59.30;;;;;;2287741;55;20948;-74
2023/07/04 01:04:59;;;;;;;1.87;0.70;;;22.40;59.50;;;;;;2514934;55;20954;-71
2023/07/04 01:07:41;;;;;;;2.20;0.80;;;22.40;59.70;;;;;;2282824;55;21313;-73
2023/07/04 01:10:27;;;;;;;2.03;0.80;;;22.40;59.90;;;;;;2524643;54;20967;-70
2023/07/04 01:12:53;;;;;;;2.05;0.77;;;22.40;60.10;;;;;;2302781;55;21024;-71
2023/07/04 01:15:23;;;;;;;2.05;0.88;;;22.40;60.40;;;;;;2527108;54;20920;-71
2023/07/04 01:17:51;;;;;;;3.72;1.05;;;22.40;60.70;;;;;;2501272;54;21731;-71
2023/07/04 01:20:17;;;;;;;2.08;0.90;;;22.30;60.80;;;;;;2299327;55;21106;-74
2023/07/04 01:25:59;;;;;;;2.30;0.80;;;22.30;61.10;;;;;;2283267;55;21010;-70
2023/07/04 01:28:29;;;;;;;2.35;0.75;;;22.30;60.20;;;;;;2257169;56;21263;-71
2023/07/04 01:30:55;;;;;;;3.65;0.90;;;22.30;61.30;;;;;;2298003;55;21011;-74
2023/07/04 01:33:24;;;;;;;2.58;0.90;;;22.30;61.60;;;;;;2277618;56;20956;-70
2023/07/04 01:35:50;;;;;;;2.17;1.00;;;22.30;61.90;;;;;;2547493;54;20980;-74
2023/07/04 01:38:16;;;;;;;1.73;0.70;;;22.30;61.90;;;;;;2546900;54;21012;-68
2023/07/04 01:40:43;;;;;;;1.83;0.85;;;22.20;62.00;;;;;;2547907;54;21003;-71
2023/07/04 01:43:09;;;;;;;2.33;0.90;;;22.20;62.10;;;;;;2308628;55;20972;-73
2023/07/04 01:45:35;;;;;;;2.92;0.93;;;22.20;62.30;;;;;;2542984;54;20935;-70
2023/07/04 01:48:02;;;;;;;2.22;1.08;;;22.20;62.40;;;;;;2536981;54;20977;-71
2023/07/04 01:50:28;;;;;;;2.40;0.85;;;22.20;62.60;;;;;;2490714;54;21425;-70
2023/07/04 01:52:55;;;;;;;3.65;1.10;;;22.20;62.70;;;;;;2302422;55;21039;-70
2023/07/04 01:55:21;;;;;;;3.42;0.90;;;22.20;62.80;;;;;;2511950;54;20929;-70
2023/07/04 01:57:47;;;;;;;2.67;1.02;;;22.20;63.00;;;;;;2308489;55;20939;-74
2023/07/04 02:00:15;;;;;;;2.70;0.80;;;22.10;63.00;;;;;;2308395;55;20991;-71
2023/07/04 02:02:43;;;;;;;2.37;0.90;;;22.10;63.10;;;;;;2308987;55;21717;-70
2023/07/04 02:05:09;;;;;;;2.12;0.90;;;22.10;63.30;;;;;;2547039;54;20943;-71
2023/07/04 02:07:35;;;;;;;2.12;0.93;;;22.10;63.40;;;;;;2547557;54;21027;-71
2023/07/04 02:10:02;;;;;;;1.95;0.70;;;22.10;63.50;;;;;;2309329;55;21066;-73
2023/07/04 02:12:29;;;;;;;2.35;0.93;;;22.10;63.60;;;;;;2308854;55;20936;-71
2023/07/04 02:14:55;;;;;;;2.37;1.08;;;22.10;63.70;;;;;;2547411;54;20932;-71
2023/07/04 02:17:22;;;;;;;2.53;1.00;;;22.10;63.70;;;;;;2546564;54;20928;-71
2023/07/04 02:19:50;;;;;;;2.00;0.88;;;22.00;63.80;;;;;;2547094;54;20992;-70
2023/07/04 02:22:17;;;;;;;2.55;1.10;;;22.00;63.80;;;;;;2547112;54;21037;-73
2023/07/04 02:24:43;;;;;;;2.17;1.02;;;22.00;63.80;;;;;;2308847;55;20936;-71
2023/07/04 02:27:09;;;;;;;2.40;1.20;;;22.00;64.00;;;;;;2546791;54;21903;-72
2023/07/04 02:29:36;;;;;;;2.70;1.08;;;22.00;64.00;;;;;;2309030;55;20991;-73
2023/07/04 02:32:02;;;;;;;2.58;1.23;;;21.90;64.00;;;;;;2307920;55;21526;-71
2023/07/04 02:34:28;;;;;;;1.95;0.80;;;21.90;64.20;;;;;;2547193;54;20939;-70
2023/07/04 02:36:57;;;;;;;2.53;0.93;;;21.90;64.20;;;;;;2308252;55;20920;-73
2023/07/04 02:39:27;;;;;;;2.58;1.20;;;21.90;64.30;;;;;;2541560;54;20950;-71
2023/07/04 02:41:54;;;;;;;3.72;1.10;;;21.90;64.50;;;;;;2303290;55;21043;-71
2023/07/04 02:44:21;;;;;;;2.30;1.00;;;21.90;64.50;;;;;;2542647;54;21350;-71
2023/07/04 02:46:47;;;;;;;3.03;1.25;;;21.90;64.60;;;;;;2309121;55;20928;-70
2023/07/04 02:49:13;;;;;;;2.50;1.10;;;21.80;64.60;;;;;;2547342;54;20988;-70
2023/07/04 02:51:40;;;;;;;2.75;1.02;;;21.80;64.70;;;;;;2308624;55;21025;-71
2023/07/04 02:54:06;;;;;;;1.95;0.75;;;21.80;64.80;;;;;;2308229;55;21094;-71
2023/07/04 02:56:33;;;;;;;1.92;0.90;;;21.80;65.00;;;;;;2309071;55;21989;-71
2023/07/04 02:59:00;;;;;;;2.05;0.80;;;21.80;65.20;;;;;;2547145;54;20948;-70
2023/07/04 03:01:29;;;;;;;2.85;1.00;;;21.80;65.40;;;;;;2309330;55;20931;-70
2023/07/04 03:03:55;;;;;;;2.80;1.20;;;21.80;65.50;;;;;;2307823;55;21024;-70
2023/07/04 03:06:27;;;;;;;2.30;1.10;;;21.80;65.70;;;;;;2547904;54;20964;-70
2023/07/04 03:08:56;;;;;;;2.20;1.00;;;21.80;65.90;;;;;;2547009;54;20987;-71
2023/07/04 03:11:22;;;;;;;2.22;0.80;;;21.80;66.10;;;;;;2510324;54;20968;-70
2023/07/04 03:13:50;;;;;;;1.87;0.88;;;21.80;66.20;;;;;;2547861;54;20996;-70
2023/07/04 03:16:16;;;;;;;1.73;0.80;;;21.80;66.40;;;;;;2513950;54;20981;-70
2023/07/04 03:18:42;;;;;;;2.85;1.10;;;21.80;66.40;;;;;;2543293;54;21982;-71
2023/07/04 03:21:09;;;;;;;2.33;0.90;;;21.80;66.50;;;;;;2307585;55;20940;-70
2023/07/04 03:23:35;;;;;;;1.67;0.75;;;21.80;66.60;;;;;;2308640;55;20936;-70
2023/07/04 03:26:02;;;;;;;2.72;0.80;;;21.80;66.70;;;;;;2308522;55;20952;-70
2023/07/04 03:28:30;;;;;;;1.83;0.80;;;21.80;66.80;;;;;;2547718;54;21832;-70
2023/07/04 03:30:57;;;;;;;2.33;1.00;;;21.70;66.70;;;;;;2298902;55;20953;-71
2023/07/04 03:33:25;;;;;;;2.62;1.10;;;21.70;66.80;;;;;;2270778;55;20952;-69
2023/07/04 03:35:51;;;;;;;2.67;0.73;;;21.80;67.00;;;;;;2308561;55;21047;-73
2023/07/04 03:38:24;;;;;;;1.80;0.77;;;21.70;67.00;;;;;;2547887;54;20991;-73
2023/07/04 03:40:50;;;;;;;2.40;0.95;;;21.70;67.10;;;;;;2516001;54;20937;-71
2023/07/04 03:43:17;;;;;;;2.70;1.00;;;21.70;67.30;;;;;;2544079;54;20912;-70
2023/07/04 03:45:46;;;;;;;2.08;0.90;;;21.70;67.40;;;;;;2309096;55;21874;-71
2023/07/04 03:48:12;;;;;;;2.60;1.05;;;21.70;67.50;;;;;;2309455;55;21809;-71
2023/07/04 03:50:39;;;;;;;2.25;0.80;;;21.70;67.70;;;;;;2514605;54;20980;-70
2023/07/04 03:53:05;;;;;;;2.62;1.12;;;21.70;67.80;;;;;;2537700;54;20962;-70
2023/07/04 03:55:31;;;;;;;1.95;0.95;;;21.70;67.90;;;;;;2504788;54;20950;-71
2023/07/04 03:57:58;;;;;;;2.20;1.00;;;21.70;68.00;;;;;;2528677;54;20928;-71
2023/07/04 04:00:24;;;;;;;2.42;0.98;;;21.70;68.20;;;;;;2513991;54;20989;-71
2023/07/04 04:02:50;;;;;;;1.77;0.88;;;21.70;68.20;;;;;;2545347;54;20952;-71
2023/07/04 04:05:17;;;;;;;2.55;0.80;;;21.70;68.30;;;;;;2308558;55;21008;-71
2023/07/04 04:07:43;;;;;;;2.00;0.80;;;21.70;68.30;;;;;;2547544;54;21035;-71
2023/07/04 04:10:10;;;;;;;1.92;0.82;;;21.70;68.40;;;;;;2547343;54;20939;-71
2023/07/04 04:12:39;;;;;;;1.75;0.85;;;21.70;69.10;;;;;;2547604;54;21087;-70
2023/07/04 04:15:06;;;;;;;2.25;1.00;;;21.70;68.40;;;;;;2546682;54;20916;-70
2023/07/04 04:17:33;;;;;;;2.00;0.90;;;21.70;68.50;;;;;;2548156;54;21067;-70
2023/07/04 04:20:03;;;;;;;1.75;0.80;;;21.70;68.60;;;;;;2548477;54;21004;-72
2023/07/04 04:22:30;;;;;;;3.10;1.00;;;21.80;68.80;;;;;;2303618;55;21007;-70
2023/07/04 04:24:57;;;;;;;2.47;0.90;;;21.70;68.80;;;;;;2516104;54;20954;-72
2023/07/04 04:27:26;;;;;;;2.00;0.95;;;21.80;69.00;;;;;;2282662;55;21084;-70
2023/07/04 04:29:53;;;;;;;2.12;0.98;;;21.80;69.10;;;;;;2516000;55;20961;-71
2023/07/04 04:32:22;;;;;;;1.52;0.73;;;21.80;69.10;;;;;;2282362;55;20934;-69
2023/07/04 04:34:48;;;;;;;2.17;1.00;;;21.80;69.20;;;;;;2515306;55;20938;-72
2023/07/04 04:37:16;;;;;;;3.05;1.10;;;21.80;69.30;;;;;;2285775;55;20946;-70
2023/07/04 04:39:44;;;;;;;2.20;1.10;;;21.80;69.30;;;;;;2281945;55;20965;-71
2023/07/04 04:42:14;;;;;;;2.17;0.90;;;21.80;69.40;;;;;;2281387;55;20954;-71
2023/07/04 04:44:43;;;;;;;2.33;0.93;;;21.70;69.40;;;;;;2283080;55;21006;-71
2023/07/04 04:47:10;;;;;;;3.62;0.90;;;21.90;69.50;;;;;;2516055;55;20962;-74
2023/07/04 04:49:36;;;;;;;2.67;1.23;;;21.90;69.70;;;;;;2514108;55;21077;-71
2023/07/04 04:52:03;;;;;;;3.17;1.17;;;21.90;69.80;;;;;;2282873;55;21014;-70
2023/07/04 04:54:30;;;;;;;1.60;0.77;;;21.90;69.80;;;;;;2281521;55;21431;-71
2023/07/04 04:56:56;;;;;;;2.53;1.02;;;21.90;69.90;;;;;;2283342;55;21017;-73
2023/07/04 04:59:22;;;;;;;3.62;1.37;;;21.90;69.90;;;;;;2282047;55;21384;-72
2023/07/04 05:01:49;;;;;;;2.30;1.10;;;21.90;70.00;;;;;;2515117;55;20970;-73
2023/07/04 05:04:18;;;;;;;2.50;1.15;;;21.90;70.00;;;;;;2283326;55;20962;-72
2023/07/04 05:06:45;;;;;;;2.70;1.00;;;22.00;70.20;;;;;;2278794;56;21051;-72
2023/07/04 05:09:12;;;;;;;2.10;0.90;;;22.00;70.20;;;;;;2513074;55;20954;-72
2023/07/04 05:11:38;;;;;;;1.80;0.88;;;22.00;70.30;;;;;;2515949;55;20951;-71
2023/07/04 05:14:07;;;;;;;2.50;1.10;;;22.00;70.30;;;;;;2522507;54;21722;-71
2023/07/04 05:16:33;;;;;;;2.40;1.08;;;22.10;70.30;;;;;;2547990;54;20976;-70
2023/07/04 05:19:00;;;;;;;2.35;0.98;;;22.10;70.30;;;;;;2522259;54;20943;-71
2023/07/04 05:21:26;;;;;;;3.12;1.02;;;22.10;70.30;;;;;;2287312;55;21736;-71
2023/07/04 05:23:52;;;;;;;1.90;0.80;;;22.10;70.40;;;;;;2519006;54;20962;-70
2023/07/04 05:26:28;;;;;;;2.17;1.00;;;22.10;70.40;;;;;;2308615;55;20923;-73
2023/07/04 05:28:55;;;;;;;3.65;1.05;;;22.10;70.10;;;;;;2547218;54;21034;-71
2023/07/04 05:31:23;;;;;;;2.92;1.02;;;22.10;70.50;;;;;;2547167;54;20990;-70
2023/07/04 05:33:53;;;;;;;1.80;0.77;;;22.20;70.60;;;;;;2544031;54;20956;-71
2023/07/04 05:36:29;;;;;;;2.40;1.10;;;22.20;70.60;;;;;;2282052;55;20950;-71
2023/07/04 05:39:00;;;;;;;2.50;0.98;;;22.20;70.70;;;;;;2256899;55;21042;-70
2023/07/04 05:41:28;;;;;;;1.77;0.80;;;22.30;70.70;;;;;;2515097;55;21041;-72
2023/07/04 05:43:55;;;;;;;2.53;1.17;;;22.30;70.90;;;;;;2256003;55;21029;-72
2023/07/04 05:46:21;;;;;;;3.30;1.10;;;22.30;71.00;;;;;;2515951;54;21703;-70
2023/07/04 05:48:48;;;;;;;2.80;1.20;;;22.30;71.00;;;;;;2514479;54;20927;-73
2023/07/04 05:51:16;;;;;;;2.30;1.10;;;22.40;71.10;;;;;;2515522;54;20998;-71
2023/07/04 05:53:47;;;;;;;2.33;0.90;;;22.40;71.10;;;;;;2536581;54;21446;-71
2023/07/04 05:56:27;;;;;;;2.70;1.30;;;22.40;71.00;;;;;;2493683;54;21064;-71
2023/07/04 05:58:55;;;;;;;2.50;1.20;;;22.50;70.80;;;;;;2509902;55;20958;-72
2023/07/04 06:01:23;;;;;;;2.78;1.10;;;22.50;71.20;;;;;;2514981;55;20938;-70
2023/07/04 06:03:50;;;;;;;2.47;1.00;;;22.50;71.20;;;;;;2519244;54;20956;-71
2023/07/04 06:06:26;;;;;;;2.00;0.90;;;22.60;71.40;;;;;;2308509;55;20928;-72
2023/07/04 06:08:53;;;;;;;2.53;1.10;;;22.60;71.30;;;;;;2305673;55;21009;-71
2023/07/04 06:11:20;;;;;;;2.00;0.90;;;22.60;71.40;;;;;;2281810;55;20954;-70
2023/07/04 06:13:49;;;;;;;2.20;1.00;;;22.70;71.50;;;;;;2288371;55;20982;-70
2023/07/04 06:16:16;;;;;;;2.40;1.05;;;22.70;71.60;;;;;;2282302;55;20956;-70
2023/07/04 06:18:43;;;;;;;2.55;1.08;;;22.80;71.70;;;;;;2514659;55;20974;-70
2023/07/04 06:21:47;;;;;;;3.72;1.33;;;22.80;71.60;;;;;;2281596;55;21529;-71
2023/07/04 06:24:15;;;;;;;1.75;0.80;;;22.90;70.70;;;;;;2282355;55;20968;-72
2023/07/04 06:26:41;;;;;;;2.37;1.00;;;22.90;71.60;;;;;;2505322;55;20967;-73
2023/07/04 06:29:08;;;;;;;2.62;1.10;;;22.90;71.70;;;;;;2535315;54;21075;-70
2023/07/04 06:31:36;;;;;;;2.30;0.90;;;23.00;71.70;;;;;;2308972;55;21357;-71
2023/07/04 06:34:03;;;;;;;2.50;1.10;;;23.00;71.70;;;;;;2296505;55;21018;-71
2023/07/04 06:36:30;;;;;;;2.00;1.00;;;23.10;72.40;;;;;;2269359;55;21446;-72
2023/07/04 06:39:00;;;;;;;2.03;0.93;;;23.10;71.70;;;;;;2524491;54;20927;-72
2023/07/04 06:41:27;;;;;;;2.55;1.05;;;23.10;71.50;;;;;;2519275;54;21018;-73
2023/07/04 06:43:54;;;;;;;2.20;1.20;;;23.20;71.70;;;;;;2544499;54;20932;-72
2023/07/04 06:46:20;;;;;;;2.12;1.00;;;23.20;71.60;;;;;;2530197;54;20983;-71
2023/07/04 06:48:52;;;;;;;2.08;1.00;;;23.20;71.50;;;;;;2517037;54;20924;-71
2023/07/04 06:51:24;;;;;;;1.90;0.90;;;23.30;71.60;;;;;;2515070;54;20968;-73
2023/07/04 06:53:50;;;;;;;2.12;0.82;;;23.30;71.50;;;;;;2282801;55;21535;-73
2023/07/04 06:56:21;;;;;;;1.83;0.88;;;23.40;71.70;;;;;;2516103;54;20998;-71
2023/07/04 06:58:56;;;;;;;1.70;0.80;;;23.40;71.80;;;;;;2546828;54;20975;-70
2023/07/04 07:01:26;;;;;;;2.67;1.10;;;23.50;71.90;;;;;;2257961;55;21013;-71
2023/07/04 07:03:53;;;;;;;2.90;0.98;;;23.50;71.80;;;;;;2503140;54;21031;-71
2023/07/04 07:06:21;;;;;;;1.92;0.90;;;23.50;71.70;;;;;;2270822;56;21003;-72
2023/07/04 07:08:49;;;;;;;2.15;0.90;;;23.60;71.80;;;;;;2282930;55;21007;-70
2023/07/04 07:11:18;;;;;;;2.70;1.10;;;23.60;71.80;;;;;;2514377;55;20968;-71
2023/07/04 07:13:48;;;;;;;2.05;0.85;;;23.60;71.70;;;;;;2283346;55;20952;-71
2023/07/04 07:16:17;;;;;;;2.08;0.98;;;23.70;71.70;;;;;;2282260;55;20961;-71
2023/07/04 07:18:45;;;;;;;2.12;0.82;;;23.70;71.60;;;;;;2282496;55;20934;-68
2023/07/04 07:21:14;;;;;;;2.00;0.88;;;23.80;71.60;;;;;;2281646;55;21508;-70
2023/07/04 07:23:40;;;;;;;1.90;0.90;;;23.80;71.60;;;;;;2541233;54;20950;-68
2023/07/04 07:26:08;;;;;;;2.40;0.82;;;23.90;71.50;;;;;;2548015;54;21450;-73
2023/07/04 07:28:39;;;;;;;1.67;0.77;;;23.90;71.30;;;;;;2305159;55;20918;-69
2023/07/04 07:31:25;;;;;;;2.58;1.02;;;23.90;71.10;;;;;;2281059;56;21773;-71
2023/07/04 07:33:57;;;;;;;1.62;0.73;;;23.90;70.90;;;;;;2260731;56;20995;-69
2023/07/04 07:36:37;;;;;;;2.33;0.80;;;24.00;71.00;;;;;;2278326;55;20970;-72
2023/07/04 07:39:05;;;;;;;2.78;0.90;;;24.00;70.30;;;;;;2282956;55;20974;-74
2023/07/04 07:41:33;;;;;;;2.20;0.90;;;24.10;71.00;;;;;;2516570;55;20997;-71
2023/07/04 07:43:59;;;;;;;1.42;0.70;;;24.10;70.90;;;;;;2516073;55;21018;-70
2023/07/04 07:46:27;;;;;;;2.45;1.10;;;24.10;71.00;;;;;;2515735;55;21472;-72
2023/07/04 07:48:53;;;;;;;2.80;1.17;;;24.10;71.00;;;;;;2515939;55;21034;-71
2023/07/04 07:51:20;;;;;;;2.17;1.05;;;24.20;71.00;;;;;;2514742;55;20998;-71
2023/07/04 07:53:47;;;;;;;2.40;1.15;;;24.20;70.80;;;;;;2284251;55;20986;-72
2023/07/04 07:56:17;;;;;;;2.05;1.05;;;24.20;70.70;;;;;;2505201;54;20943;-70
2023/07/04 07:58:46;;;;;;;3.10;0.90;;;24.30;70.70;;;;;;2515752;54;20991;-71
2023/07/04 08:01:20;;;;;;;2.30;1.00;;;24.30;70.70;;;;;;2286656;54;20987;-71
2023/07/04 08:03:49;;;;;;;2.62;1.20;;;24.30;70.10;;;;;;2294756;55;20952;-71
2023/07/04 08:07:02;;;;;;;2.37;1.00;;;24.40;70.70;;;;;;2308897;55;20924;-70
2023/07/04 08:09:29;;;;;;;4.12;1.10;;;24.40;70.40;;;;;;2263741;55;21039;-71
2023/07/04 08:11:55;;;;;;;3.35;1.25;;;24.50;70.90;;;;;;2528843;54;20950;-72
2023/07/04 08:14:21;;;;;;;3.00;1.20;;;24.50;70.80;;;;;;2492287;55;21041;-72
2023/07/04 08:16:54;;;;;;;3.00;1.10;;;24.50;70.60;;;;;;2275712;55;20956;-71
2023/07/04 08:19:49;;;;;;;2.92;1.25;;;24.60;70.30;;;;;;2548522;54;21094;-71
2023/07/04 08:22:15;;;;;;;2.30;1.10;;;24.60;69.40;;;;;;2262049;55;21523;-71
2023/07/04 08:24:42;;;;;;;1.87;0.95;;;24.60;70.60;;;;;;2295306;55;21007;-71
2023/07/04 08:27:08;;;;;;;2.00;1.00;;;24.70;70.80;;;;;;2263820;55;20993;-71
2023/07/04 08:29:35;;;;;;;2.80;1.05;;;24.70;70.80;;;;;;2302152;55;21574;-71
2023/07/04 08:32:01;;;;;;;2.28;1.00;;;24.80;70.90;;;;;;2548110;54;20932;-71
2023/07/04 08:34:27;;;;;;;2.80;1.30;;;24.80;70.70;;;;;;2267325;55;20979;-71
2023/07/04 08:36:55;;;;;;;2.90;1.25;;;24.90;70.60;;;;;;2481868;54;1658659;-72
2023/07/04 08:39:22;;;;;;;2.35;1.35;;;24.90;70.50;;;;;;2270216;55;21342;-71
2023/07/04 08:41:59;;;;;;;3.28;1.10;;;24.90;70.50;;;;;;2283874;55;20942;-72
2023/07/04 08:44:43;;;;;;;2.40;1.00;;;24.90;69.50;;;;;;2279575;55;20951;-72
2023/07/04 08:47:10;;;;;;;2.08;1.00;;;25.00;69.40;;;;;;2515168;55;20958;-69
2023/07/04 08:49:48;;;;;;;2.25;1.08;;;25.00;70.20;;;;;;2282924;56;20962;-72
2023/07/04 08:53:18;;;;;;;3.35;1.17;;;25.00;69.80;;;;;;2516387;55;20916;-71
2023/07/04 08:56:00;;;;;;;2.55;1.20;;;25.10;68.60;;;;;;2303654;55;20955;-71
2023/07/04 08:58:35;;;;;;;2.80;1.20;;;25.10;69.70;;;;;;2507473;54;20977;-71
2023/07/04 09:01:04;;;;;;;2.75;1.30;;;25.20;69.80;;;;;;2494155;55;21464;-71
2023/07/04 09:05:35;;;;;;;3.33;1.42;;;25.20;69.90;;;;;;2282758;55;21494;-71
2023/07/04 09:08:13;;;;;;;2.62;1.08;;;25.20;68.40;;;;;;2283078;55;21005;-72
2023/07/04 09:10:49;;;;;;;2.87;1.25;;;25.30;69.60;;;;;;2507286;54;21011;-71
2023/07/04 09:13:27;;;;;;;2.80;1.20;;;25.30;69.40;;;;;;2284001;55;21761;-71
2023/07/04 09:15:55;;;;;;;2.53;1.10;;;25.40;69.30;;;;;;2516165;55;21002;-72
2023/07/04 09:18:35;;;;;;;2.90;1.30;;;25.40;69.80;;;;;;2282830;55;20978;-71
2023/07/04 09:21:18;;;;;;;3.35;1.30;;;25.40;68.50;;;;;;2283066;55;20967;-71
2023/07/04 09:23:45;;;;;;;4.40;1.50;;;25.40;68.10;;;;;;2515900;55;20946;-72
2023/07/04 09:26:15;;;;;;;3.40;1.45;;;25.50;69.20;;;;;;2545295;54;21087;-71
2023/07/04 09:28:42;;;;;;;3.65;1.62;;;25.50;68.80;;;;;;2554209;54;21063;-71
2023/07/04 09:31:20;;;;;;;3.62;1.60;;;25.50;68.70;;;;;;2552669;54;21019;-71
2023/07/04 09:33:52;;;;;;;2.70;1.37;;;25.50;68.20;;;;;;2313349;55;20983;-71
2023/07/04 09:36:21;;;;;;;3.22;1.80;;;25.60;68.10;;;;;;2314339;55;20963;-72
2023/07/04 09:39:00;;;;;;;3.85;1.80;;;25.40;67.70;;;;;;2523495;54;20985;-73
2023/07/04 09:41:33;;;;;;;3.40;1.80;;;25.60;67.10;;;;;;2283690;55;21001;-71
2023/07/04 09:44:19;;;;;;;3.47;1.80;;;25.60;67.60;;;;;;2282975;55;20953;-71
2023/07/04 09:46:50;;;;;;;4.53;2.08;;;25.60;65.50;;;;;;2516613;55;20944;-70
2023/07/04 09:49:33;;;;;;;3.12;1.33;;;25.60;66.50;;;;;;2282731;54;20970;-71
2023/07/04 09:52:04;;;;;;;3.00;1.70;;;25.70;66.10;;;;;;2282695;55;21049;-71
2023/07/04 09:54:38;;;;;;;2.73;1.40;;;25.70;66.30;;;;;;2270446;55;21898;-71
2023/07/04 09:57:24;;;;;;;3.55;1.80;;;25.70;66.80;;;;;;2547955;54;21536;-72
2023/07/04 09:59:51;;;;;;;4.00;2.08;;;25.70;64.30;;;;;;2294101;55;21267;-69
2023/07/04 10:02:26;;;;;;;3.72;2.00;;;25.80;66.20;;;;;;2548070;54;21110;-72
2023/07/04 10:04:52;;;;;;;4.43;2.12;;;25.70;66.00;;;;;;2309908;55;21899;-72
2023/07/04 10:07:21;;;;;;;4.10;2.28;;;25.70;65.90;;;;;;2308514;55;20987;-71
2023/07/04 10:09:54;;;;;;;3.85;2.12;;;25.70;65.20;;;;;;2541251;54;21007;-71
2023/07/04 10:12:21;;;;;;;4.95;2.50;;;25.60;64.60;;;;;;2298840;55;21714;-69
2023/07/04 10:14:57;;;;;;;4.10;2.28;;;25.80;65.60;;;;;;2523294;54;20938;-71
2023/07/04 10:17:35;;;;;;;3.53;1.90;;;25.80;64.10;;;;;;2480715;55;21029;-71
2023/07/04 10:21:26;;;;;;;5.80;2.85;;;25.80;64.00;;;;;;2515508;55;20919;-72
2023/07/04 10:23:52;;;;;;;5.47;3.78;;;25.80;62.80;;;;;;2522711;54;20995;-72
2023/07/04 10:26:22;;;;;;;6.93;3.00;;;25.80;65.50;;;;;;2288149;56;20950;-70
2023/07/04 10:28:52;;;;;;;4.57;2.92;;;25.80;65.30;;;;;;2283121;55;20950;-72
2023/07/04 10:31:18;;;;;;;4.78;2.75;;;25.90;65.20;;;;;;2288133;55;20942;-73
2023/07/04 10:33:51;;;;;;;4.07;2.35;;;25.90;65.20;;;;;;2515722;55;22370;-71
2023/07/04 10:36:23;;;;;;;5.28;3.03;;;25.90;64.60;;;;;;2516072;55;21010;-73
2023/07/04 10:38:50;;;;;;;4.60;2.30;;;25.90;64.60;;;;;;2257436;56;20974;-71
2023/07/04 10:42:56;;;;;;;3.62;2.10;;;26.00;65.20;;;;;;2297935;55;20928;-72
2023/07/04 10:45:23;;;;;;;4.47;2.30;;;26.00;64.20;;;;;;2548157;54;21389;-69
2023/07/04 10:47:52;;;;;;;4.20;2.03;;;26.10;65.40;;;;;;2483023;54;20959;-70
2023/07/04 10:51:21;;;;;;;4.12;2.17;;;26.10;65.40;;;;;;2514639;55;21726;-73
2023/07/04 10:53:51;;;;;;;3.45;1.80;;;26.20;63.60;;;;;;2516816;55;20927;-72
2023/07/04 10:56:27;;;;;;;4.45;2.37;;;26.30;65.80;;;;;;2283167;55;20914;-72
2023/07/04 10:58:57;;;;;;;3.53;1.98;;;26.30;64.30;;;;;;2516678;55;20994;-72
2023/07/04 11:01:33;;;;;;;4.87;1.90;;;26.40;65.30;;;;;;2283222;55;21969;-70
2023/07/04 11:04:22;;;;;;;3.10;1.85;;;26.50;65.30;;;;;;2283496;55;20938;-72
2023/07/04 11:07:08;;;;;;;4.78;2.00;;;26.60;62.90;;;;;;2516137;55;20927;-72
2023/07/04 11:09:38;;;;;;;5.45;2.65;;;26.60;62.80;;;;;;2282574;55;21463;-71
2023/07/04 11:12:06;;;;;;;4.18;2.05;;;26.70;64.40;;;;;;2515867;55;20928;-72
2023/07/04 11:14:35;;;;;;;3.58;1.90;;;26.70;64.10;;;;;;2516279;55;21002;-72
2023/07/04 11:17:06;;;;;;;6.22;1.90;;;26.70;64.60;;;;;;2523964;54;21417;-71
2023/07/04 11:19:34;;;;;;;4.70;1.90;;;26.80;64.70;;;;;;2526168;54;21414;-71
2023/07/04 11:22:38;;;;;;;3.08;1.58;;;26.80;64.60;;;;;;2283074;56;20994;-72
2023/07/04 11:25:25;;;;;;;4.37;2.03;;;26.90;62.40;;;;;;2516252;55;21102;-71
2023/07/04 11:28:26;;;;;;;3.40;1.80;;;27.00;62.90;;;;;;2516583;55;20919;-74
2023/07/04 11:33:41;;;;;;;3.87;1.92;;;27.10;62.70;;;;;;2283002;56;21089;-71
2023/07/04 11:39:52;;;;;;;3.90;1.67;;;27.30;63.10;;;;;;2547612;54;21428;-70
2023/07/04 11:42:28;;;;;;;3.10;1.50;;;27.40;64.90;;;;;;2548338;54;20965;-72
2023/07/04 11:45:13;;;;;;;3.40;1.52;;;27.40;64.50;;;;;;2283146;55;21054;-73
2023/07/04 11:47:54;;;;;;;5.32;2.08;;;27.50;62.30;;;;;;2282752;55;20970;-69
2023/07/04 11:50:34;;;;;;;3.25;1.77;;;27.60;63.80;;;;;;2553722;54;20916;-68
2023/07/04 11:53:03;;;;;;;3.08;1.62;;;27.60;62.00;;;;;;2307428;55;20960;-69
2023/07/04 11:59:43;;;;;;;3.10;1.70;;;27.70;61.20;;;;;;2509791;55;21002;-70
2023/07/04 12:02:26;;;;;;;4.87;2.00;;;27.80;60.80;;;;;;2281615;55;20919;-70
2023/07/04 12:04:54;;;;;;;3.37;1.77;;;27.90;61.00;;;;;;2515958;55;20939;-72
2023/07/04 12:10:39;;;;;;;5.45;1.83;;;28.00;63.10;;;;;;2513036;55;20993;-70
2023/07/04 12:13:07;;;;;;;3.65;1.67;;;28.10;60.80;;;;;;2283609;55;20954;-66
2023/07/04 12:15:37;;;;;;;3.58;1.65;;;28.10;62.70;;;;;;2515834;55;20958;-68
2023/07/04 12:18:14;;;;;;;3.72;1.90;;;28.10;62.10;;;;;;2282971;55;20942;-68
2023/07/04 12:20:40;;;;;;;3.22;1.50;;;28.10;60.40;;;;;;2515889;55;20942;-66
2023/07/04 12:23:09;;;;;;;2.95;1.35;;;28.20;62.20;;;;;;2516532;55;21740;-68
2023/07/04 12:25:40;;;;;;;3.58;1.35;;;28.20;62.00;;;;;;2495145;55;20969;-67
2023/07/04 12:28:08;;;;;;;3.20;1.35;;;28.20;61.50;;;;;;2273115;56;21024;-67
2023/07/04 12:30:39;;;;;;;3.17;1.70;;;28.20;61.90;;;;;;2254453;56;21678;-68
2023/07/04 12:33:22;;;;;;;3.55;1.70;;;28.30;61.80;;;;;;2516296;55;20938;-73
2023/07/04 12:35:55;;;;;;;3.03;1.37;;;28.30;60.60;;;;;;2282505;55;21010;-67
2023/07/04 12:38:25;;;;;;;2.50;1.27;;;28.40;62.40;;;;;;2278549;55;21346;-70
2023/07/04 12:40:56;;;;;;;2.70;1.25;;;28.40;62.10;;;;;;2515552;55;20998;-68
2023/07/04 12:43:26;;;;;;;3.37;1.60;;;28.50;62.30;;;;;;2283425;55;20998;-68
2023/07/04 12:46:15;;;;;;;2.92;1.55;;;28.50;62.10;;;;;;2515210;55;20954;-72
2023/07/04 12:48:47;;;;;;;4.28;1.37;;;28.60;59.70;;;;;;2516077;55;21038;-73
2023/07/04 12:51:20;;;;;;;3.10;1.45;;;28.60;62.50;;;;;;2515923;55;21003;-71
2023/07/04 12:53:46;;;;;;;3.30;1.52;;;28.70;61.90;;;;;;2515967;55;21086;-68
2023/07/04 12:56:14;;;;;;;2.95;1.42;;;28.70;62.60;;;;;;2282373;55;20956;-69
2023/07/04 12:58:44;;;;;;;2.92;1.30;;;28.80;62.20;;;;;;2514624;55;20942;-67
2023/07/04 13:01:11;;;;;;;3.75;1.52;;;28.80;62.00;;;;;;2283045;55;21048;-68
2023/07/04 13:03:43;;;;;;;2.92;1.50;;;28.90;61.70;;;;;;2514177;55;21486;-68
2023/07/04 13:06:19;;;;;;;3.42;1.50;;;28.90;61.00;;;;;;2516006;55;21531;-71
2023/07/04 13:08:49;;;;;;;3.47;1.65;;;28.90;60.00;;;;;;2515564;55;21053;-67
2023/07/04 13:11:16;;;;;;;3.35;1.48;;;29.00;61.40;;;;;;2282349;55;21093;-66
2023/07/04 13:13:47;;;;;;;3.00;1.48;;;29.00;61.00;;;;;;2515419;55;21002;-71
2023/07/04 13:16:25;;;;;;;3.30;1.30;;;29.10;60.50;;;;;;2282068;55;21037;-67
2023/07/04 13:19:19;;;;;;;2.95;1.37;;;29.10;60.20;;;;;;2283260;55;21732;-68
2023/07/04 13:21:47;;;;;;;2.05;0.95;;;29.10;58.90;;;;;;2282785;55;21006;-69
2023/07/04 13:24:33;;;;;;;2.35;1.00;;;29.20;61.40;;;;;;2515161;55;20943;-68
2023/07/04 13:27:18;;;;;;;2.15;1.02;;;29.20;59.70;;;;;;2474226;55;21121;-70
2023/07/04 13:29:55;;;;;;;;;;;29.20;59.80;;;;;;2485042;55;21886;-67